createdAt,value
2023-01-29T00:00:22.342Z,1.63
2023-01-29T00:02:49.163Z,1.58
2023-01-29T00:05:27.625Z,1.71
2023-01-29T00:07:56.543Z,1.47
2023-01-29T00:10:24.507Z,1.51
2023-01-29T00:12:51.854Z,1.50
2023-01-29T00:15:18.901Z,1.40
2023-01-29T00:17:45.505Z,1.43
2023-01-29T00:20:12.497Z,1.60
2023-01-29T00:22:39.148Z,1.66
2023-01-29T00:25:06.257Z,1.69
2023-01-29T00:27:32.892Z,1.52
2023-01-29T00:30:13.137Z,1.46
2023-01-29T00:32:40.808Z,1.59
2023-01-29T00:35:08.764Z,1.38
2023-01-29T00:37:35.751Z,1.38
2023-01-29T00:40:02.394Z,1.40
2023-01-29T00:42:47.476Z,1.43
2023-01-29T00:45:15.101Z,1.46
2023-01-29T00:47:41.775Z,1.38
2023-01-29T00:50:10.826Z,1.42
2023-01-29T00:52:37.863Z,1.52
2023-01-29T00:55:05.984Z,1.63
2023-01-29T00:57:33.983Z,1.69
2023-01-29T01:00:01.214Z,1.73
2023-01-29T01:02:46.797Z,1.74
2023-01-29T01:05:17.950Z,1.78
2023-01-29T01:07:52.349Z,1.56
2023-01-29T01:10:25.432Z,1.67
2023-01-29T01:12:56.384Z,1.79
2023-01-29T01:15:25.490Z,1.67
2023-01-29T01:17:54.390Z,1.65
2023-01-29T01:20:21.225Z,1.69
2023-01-29T01:22:47.866Z,1.63
2023-01-29T01:25:14.694Z,1.19
2023-01-29T01:27:41.451Z,1.25
2023-01-29T01:30:14.980Z,1.42
2023-01-29T01:32:43.181Z,1.24
2023-01-29T01:35:11.419Z,1.06
2023-01-29T01:37:38.823Z,1.17
2023-01-29T01:40:12.932Z,1.24
2023-01-29T01:42:40.372Z,1.31
2023-01-29T01:45:17.718Z,1.25
2023-01-29T01:47:48.210Z,0.99
2023-01-29T01:50:37.350Z,0.71
2023-01-29T01:53:11.438Z,-0.14
2023-01-29T01:55:48.387Z,0.01
2023-01-29T01:58:21.512Z,0.66
2023-01-29T02:00:48.073Z,0.93
2023-01-29T02:03:33.324Z,1.09
2023-01-29T02:06:19.615Z,1.21
2023-01-29T02:09:23.695Z,1.38
2023-01-29T02:11:51.469Z,1.21
2023-01-29T02:14:18.135Z,1.33
2023-01-29T02:16:44.795Z,1.41
2023-01-29T02:19:27.912Z,1.40
2023-01-29T02:22:12.329Z,1.46
2023-01-29T02:24:58.489Z,1.51
2023-01-29T02:27:50.475Z,1.66
2023-01-29T02:30:38.681Z,1.51
2023-01-29T02:33:26.411Z,1.27
2023-01-29T02:36:17.727Z,1.32
2023-01-29T02:39:05.363Z,1.49
2023-01-29T02:41:47.508Z,1.54
2023-01-29T02:44:21.167Z,1.26
2023-01-29T02:47:00.339Z,1.43
2023-01-29T02:49:56.337Z,1.54
2023-01-29T02:52:34.016Z,1.49
2023-01-29T02:55:10.451Z,1.16
2023-01-29T02:57:41.579Z,1.16
2023-01-29T03:00:16.294Z,1.21
2023-01-29T03:02:49.168Z,1.23
2023-01-29T03:05:24.180Z,1.08
2023-01-29T03:07:56.549Z,0.67
2023-01-29T03:10:53.683Z,0.83
2023-01-29T03:13:33.055Z,1.00
2023-01-29T03:16:11.190Z,1.13
2023-01-29T03:18:46.147Z,1.18
2023-01-29T03:21:47.058Z,1.33
2023-01-29T03:24:36.077Z,1.27
2023-01-29T03:27:25.628Z,1.30
2023-01-29T03:30:13.082Z,1.43
2023-01-29T03:32:40.679Z,1.40
2023-01-29T03:35:10.817Z,1.17
2023-01-29T03:37:46.409Z,1.06
2023-01-29T03:40:14.326Z,1.24
2023-01-29T03:43:07.376Z,1.58
2023-01-29T03:45:47.116Z,1.59
2023-01-29T03:48:19.585Z,1.66
2023-01-29T03:51:16.837Z,1.71
2023-01-29T03:53:54.102Z,1.63
2023-01-29T03:56:43.624Z,1.73
2023-01-29T03:59:32.967Z,1.75
2023-01-29T04:02:28.177Z,1.79
2023-01-29T04:05:04.287Z,1.60
2023-01-29T04:07:33.554Z,1.22
2023-01-29T04:10:12.531Z,1.28
2023-01-29T04:12:45.916Z,1.23
2023-01-29T04:15:15.864Z,1.17
2023-01-29T04:17:47.627Z,0.85
2023-01-29T04:20:14.594Z,0.95
2023-01-29T04:22:46.377Z,1.11
2023-01-29T04:25:16.735Z,1.04
2023-01-29T04:28:13.461Z,0.67
2023-01-29T04:30:54.674Z,0.38
2023-01-29T04:33:40.546Z,0.43
2023-01-29T04:36:26.379Z,0.26
2023-01-29T04:39:21.179Z,0.08
2023-01-29T04:42:13.924Z,0.15
2023-01-29T04:45:00.799Z,0.45
2023-01-29T04:47:45.360Z,0.48
2023-01-29T04:50:19.144Z,0.49
2023-01-29T04:52:57.974Z,0.40
2023-01-29T04:55:40.464Z,0.11
2023-01-29T04:58:43.492Z,0.06
2023-01-29T05:01:16.526Z,0.23
2023-01-29T05:03:46.858Z,0.10
2023-01-29T05:06:15.105Z,0.06
2023-01-29T05:08:42.343Z,0.15
2023-01-29T05:11:09.711Z,0.29
2023-01-29T05:13:40.656Z,0.35
2023-01-29T05:16:18.238Z,0.53
2023-01-29T05:18:45.092Z,0.58
2023-01-29T05:21:11.801Z,0.52
2023-01-29T05:23:38.385Z,0.38
2023-01-29T05:26:05.790Z,0.03
2023-01-29T05:28:32.478Z,0.16
2023-01-29T05:30:59.229Z,0.07
2023-01-29T05:33:31.359Z,0.11
2023-01-29T05:36:00.753Z,0.15
2023-01-29T05:38:27.488Z,0.08
2023-01-29T05:40:54.486Z,-0.17
2023-01-29T05:43:23.375Z,-0.12
2023-01-29T05:45:55.142Z,-0.33
2023-01-29T05:48:22.203Z,-0.37
2023-01-29T05:50:49.062Z,-0.24
2023-01-29T05:53:15.677Z,-0.28
2023-01-29T05:55:47.111Z,-0.30
2023-01-29T05:58:14.131Z,-0.50
2023-01-29T06:00:41.698Z,-0.42
2023-01-29T06:03:08.378Z,-0.50
2023-01-29T06:05:38.638Z,-0.47
2023-01-29T06:08:05.817Z,-0.60
2023-01-29T06:10:32.579Z,-0.64
2023-01-29T06:12:59.301Z,-0.50
2023-01-29T06:15:26.681Z,-0.31
2023-01-29T06:17:57.195Z,-0.12
2023-01-29T06:20:24.695Z,-0.09
2023-01-29T06:22:51.327Z,0.01
2023-01-29T06:25:17.895Z,0.00
2023-01-29T06:27:44.514Z,0.00
2023-01-29T06:30:11.788Z,-0.01
2023-01-29T06:32:38.456Z,-0.52
2023-01-29T06:35:05.562Z,-0.45
2023-01-29T06:37:32.188Z,-0.32
2023-01-29T06:39:58.805Z,-0.36
2023-01-29T06:42:28.074Z,-0.24
2023-01-29T06:44:58.021Z,-0.08
2023-01-29T06:47:25.035Z,0.09
2023-01-29T06:49:52.294Z,0.25
2023-01-29T06:52:19.232Z,0.42
2023-01-29T06:54:46.077Z,0.50
2023-01-29T06:57:12.684Z,0.57
2023-01-29T06:59:39.300Z,0.63
2023-01-29T07:02:05.908Z,0.69
2023-01-29T07:04:32.525Z,0.62
2023-01-29T07:07:00.020Z,0.62
2023-01-29T07:09:26.694Z,0.43
2023-01-29T07:11:53.297Z,0.56
2023-01-29T07:14:20.147Z,0.42
2023-01-29T07:16:46.741Z,0.44
2023-01-29T07:19:13.719Z,0.39
2023-01-29T07:21:40.295Z,0.58
2023-01-29T07:24:07.144Z,0.70
2023-01-29T07:26:33.792Z,0.78
2023-01-29T07:29:00.383Z,0.76
2023-01-29T07:31:27.092Z,0.83
2023-01-29T07:33:53.815Z,0.76
2023-01-29T07:36:20.447Z,0.29
2023-01-29T07:38:51.257Z,0.06
2023-01-29T07:41:17.881Z,-0.31
2023-01-29T07:43:44.468Z,-0.10
2023-01-29T07:46:11.429Z,0.32
2023-01-29T07:48:38.095Z,0.50
2023-01-29T07:51:04.998Z,0.62
2023-01-29T07:53:31.683Z,0.40
2023-01-29T07:55:58.308Z,0.43
2023-01-29T07:58:25.005Z,0.64
2023-01-29T08:00:51.643Z,0.80
2023-01-29T08:03:20.317Z,1.09
2023-01-29T08:05:47.483Z,1.14
2023-01-29T08:08:14.647Z,1.31
2023-01-29T08:10:41.819Z,1.31
2023-01-29T08:13:09.254Z,1.35
2023-01-29T08:15:38.027Z,1.27
2023-01-29T08:18:05.956Z,1.08
2023-01-29T08:20:32.571Z,1.08
2023-01-29T08:23:04.639Z,1.10
2023-01-29T08:25:31.512Z,1.41
2023-01-29T08:27:59.010Z,1.56
2023-01-29T08:30:28.461Z,1.87
2023-01-29T08:32:55.739Z,2.13
2023-01-29T08:35:22.792Z,2.14
2023-01-29T08:37:56.861Z,2.05
2023-01-29T08:40:23.523Z,2.15
2023-01-29T08:42:50.150Z,2.17
2023-01-29T08:45:17.228Z,2.17
2023-01-29T08:47:50.276Z,2.13
2023-01-29T08:50:18.178Z,2.31
2023-01-29T08:52:45.903Z,2.04
2023-01-29T08:55:13.340Z,2.14
2023-01-29T08:57:39.991Z,2.02
2023-01-29T09:00:09.326Z,1.87
2023-01-29T09:02:36.020Z,2.15
2023-01-29T09:05:02.646Z,2.30
2023-01-29T09:07:30.151Z,2.36
2023-01-29T09:09:56.767Z,2.48
2023-01-29T09:12:23.515Z,2.60
2023-01-29T09:14:50.132Z,2.54
2023-01-29T09:17:16.691Z,2.46
2023-01-29T09:19:43.287Z,2.72
2023-01-29T09:22:11.824Z,2.67
2023-01-29T09:24:38.651Z,2.82
2023-01-29T09:27:06.241Z,2.60
2023-01-29T09:29:35.618Z,2.75
2023-01-29T09:32:04.751Z,2.91
2023-01-29T09:34:31.371Z,3.07
2023-01-29T09:36:57.960Z,3.10
2023-01-29T09:39:24.557Z,2.63
2023-01-29T09:42:14.644Z,1.96
2023-01-29T09:44:54.222Z,2.33
2023-01-29T09:47:25.786Z,2.48
2023-01-29T09:49:58.383Z,1.81
2023-01-29T09:52:36.018Z,1.56
2023-01-29T09:55:28.880Z,1.09
2023-01-29T09:58:01.104Z,1.11
2023-01-29T10:00:42.550Z,1.18
2023-01-29T10:03:24.285Z,1.26
2023-01-29T10:06:08.866Z,1.18
2023-01-29T10:09:05.672Z,1.60
2023-01-29T10:12:02.530Z,1.87
2023-01-29T10:15:06.686Z,1.72
2023-01-29T10:17:33.208Z,1.60
2023-01-29T10:20:37.029Z,1.75
2023-01-29T10:23:03.455Z,2.04
2023-01-29T10:25:33.833Z,2.05
2023-01-29T10:28:01.692Z,2.20
2023-01-29T10:30:38.548Z,2.28
2023-01-29T10:33:12.339Z,2.15
2023-01-29T10:35:46.491Z,2.02
2023-01-29T10:38:28.319Z,2.01
2023-01-29T10:41:25.872Z,2.15
2023-01-29T10:44:17.192Z,2.10
2023-01-29T10:46:59.006Z,2.20
2023-01-29T10:49:40.745Z,2.27
2023-01-29T10:52:46.386Z,2.05
2023-01-29T10:55:12.935Z,2.30
2023-01-29T10:57:59.714Z,2.20
2023-01-29T11:00:39.313Z,2.20
2023-01-29T11:03:28.116Z,2.38
2023-01-29T11:06:20.996Z,2.38
2023-01-29T11:09:02.612Z,2.40
2023-01-29T11:11:41.495Z,2.41
2023-01-29T11:14:16.352Z,2.15
2023-01-29T11:16:45.766Z,2.02
2023-01-29T11:19:13.447Z,1.81
2023-01-29T11:22:00.139Z,1.82
2023-01-29T11:24:27.773Z,2.00
2023-01-29T11:26:59.669Z,1.85
2023-01-29T11:29:43.214Z,2.01
2023-01-29T11:32:32.815Z,2.27
2023-01-29T11:34:59.363Z,2.21
2023-01-29T11:37:46.498Z,2.03
2023-01-29T11:40:19.111Z,2.22
2023-01-29T11:42:47.180Z,2.13
2023-01-29T11:45:26.828Z,2.07
2023-01-29T11:47:55.928Z,2.09
2023-01-29T11:50:33.783Z,2.29
2023-01-29T11:53:01.641Z,2.26
2023-01-29T11:55:49.706Z,2.14
2023-01-29T11:58:29.535Z,2.13
2023-01-29T12:00:58.364Z,2.06
2023-01-29T12:03:40.838Z,2.17
2023-01-29T12:06:28.369Z,2.36
2023-01-29T12:09:00.697Z,2.21
2023-01-29T12:11:35.316Z,2.04
2023-01-29T12:14:05.002Z,1.98
2023-01-29T12:16:54.941Z,2.07
2023-01-29T12:19:51.823Z,2.15
2023-01-29T12:22:28.973Z,2.06
2023-01-29T12:25:19.064Z,2.09
2023-01-29T12:27:58.031Z,2.02
2023-01-29T12:30:31.570Z,2.08
2023-01-29T12:33:28.355Z,2.09
2023-01-29T12:36:21.692Z,2.04
2023-01-29T12:38:48.327Z,2.24
2023-01-29T12:41:37.804Z,2.36
2023-01-29T12:44:13.580Z,2.48
2023-01-29T12:46:50.491Z,2.45
2023-01-29T12:49:22.199Z,2.45
2023-01-29T12:51:59.272Z,2.24
2023-01-29T12:54:38.248Z,2.15
2023-01-29T12:57:10.729Z,2.27
2023-01-29T12:59:46.059Z,2.30
2023-01-29T13:02:16.976Z,2.32
2023-01-29T13:05:01.025Z,2.42
2023-01-29T13:07:40.178Z,2.28
2023-01-29T13:10:16.984Z,2.39
2023-01-29T13:12:54.652Z,2.45
2023-01-29T13:15:29.163Z,2.44
2023-01-29T13:18:13.762Z,2.44
2023-01-29T13:20:41.213Z,2.57
2023-01-29T13:23:22.812Z,2.66
2023-01-29T13:25:53.791Z,2.54
2023-01-29T13:28:24.314Z,2.46
2023-01-29T13:31:11.300Z,2.42
2023-01-29T13:33:40.730Z,2.45
2023-01-29T13:36:16.168Z,2.69
2023-01-29T13:38:45.220Z,2.83
2023-01-29T13:41:12.368Z,2.67
2023-01-29T13:43:43.339Z,2.59
2023-01-29T13:46:13.242Z,2.84
2023-01-29T13:48:48.508Z,3.00
2023-01-29T13:51:20.315Z,3.10
2023-01-29T13:54:04.454Z,2.97
2023-01-29T13:56:44.660Z,3.21
2023-01-29T13:59:56.445Z,3.08
2023-01-29T14:02:29.850Z,3.11
2023-01-29T14:05:30.592Z,3.05
2023-01-29T14:07:59.195Z,3.09
2023-01-29T14:10:31.070Z,2.93
2023-01-29T14:13:03.424Z,3.00
2023-01-29T14:15:37.288Z,3.00
2023-01-29T14:18:14.829Z,3.05
2023-01-29T14:20:52.326Z,3.01
2023-01-29T14:23:53.915Z,2.93
2023-01-29T14:26:26.246Z,2.87
2023-01-29T14:29:25.473Z,2.80
2023-01-29T14:32:25.028Z,2.57
2023-01-29T14:35:00.267Z,2.43
2023-01-29T14:37:40.196Z,2.54
2023-01-29T14:40:21.166Z,2.25
2023-01-29T14:43:02.837Z,2.33
2023-01-29T14:45:36.531Z,2.20
2023-01-29T14:48:11.876Z,2.34
2023-01-29T14:50:46.601Z,2.32
2023-01-29T14:53:30.101Z,2.49
2023-01-29T14:55:56.661Z,2.31
2023-01-29T14:58:38.290Z,2.45
2023-01-29T15:01:19.630Z,2.49
2023-01-29T15:04:00.090Z,2.64
2023-01-29T15:06:42.898Z,2.54
2023-01-29T15:09:36.311Z,2.51
2023-01-29T15:12:14.500Z,2.42
2023-01-29T15:15:22.849Z,2.01
2023-01-29T15:18:09.266Z,2.04
2023-01-29T15:20:38.690Z,1.96
2023-01-29T15:23:32.046Z,2.00
2023-01-29T15:26:02.025Z,1.84
2023-01-29T15:28:34.107Z,1.90
2023-01-29T15:31:06.455Z,1.85
2023-01-29T15:33:38.549Z,1.91
2023-01-29T15:36:07.714Z,1.68
2023-01-29T15:38:35.272Z,1.78
2023-01-29T15:41:14.240Z,1.62
2023-01-29T15:43:45.092Z,1.89
2023-01-29T15:46:15.822Z,1.83
2023-01-29T15:48:44.675Z,1.89
2023-01-29T15:51:17.495Z,1.61
2023-01-29T15:53:58.425Z,1.44
2023-01-29T15:56:50.495Z,1.29
2023-01-29T15:59:27.366Z,1.29
2023-01-29T16:01:54.331Z,1.33
2023-01-29T16:04:26.982Z,1.50
2023-01-29T16:06:55.521Z,1.10
2023-01-29T16:09:25.373Z,0.91
2023-01-29T16:11:54.742Z,1.16
2023-01-29T16:14:25.543Z,1.25
2023-01-29T16:16:52.969Z,1.29
2023-01-29T16:19:28.173Z,1.37
2023-01-29T16:22:01.506Z,1.34
2023-01-29T16:24:29.669Z,1.42
2023-01-29T16:27:16.597Z,1.44
2023-01-29T16:29:43.378Z,1.61
2023-01-29T16:32:13.817Z,1.51
2023-01-29T16:34:43.880Z,1.42
2023-01-29T16:37:29.651Z,1.53
2023-01-29T16:39:57.037Z,1.43
2023-01-29T16:42:28.821Z,1.55
2023-01-29T16:45:04.659Z,1.34
2023-01-29T16:47:43.734Z,1.22
2023-01-29T16:50:35.978Z,0.95
2023-01-29T16:53:20.908Z,1.16
2023-01-29T16:55:49.855Z,1.09
2023-01-29T16:58:19.117Z,1.25
2023-01-29T17:00:53.085Z,1.33
2023-01-29T17:03:20.422Z,1.35
2023-01-29T17:05:47.680Z,1.34
2023-01-29T17:08:25.767Z,1.39
2023-01-29T17:10:53.006Z,1.47
2023-01-29T17:13:29.857Z,1.51
2023-01-29T17:16:02.922Z,1.37
2023-01-29T17:18:29.483Z,1.50
2023-01-29T17:20:56.215Z,1.34
2023-01-29T17:23:23.430Z,1.43
2023-01-29T17:25:50.210Z,1.24
2023-01-29T17:28:17.842Z,1.22
2023-01-29T17:30:50.629Z,1.18
2023-01-29T17:33:25.897Z,1.07
2023-01-29T17:35:52.737Z,1.13
2023-01-29T17:38:26.393Z,1.06
2023-01-29T17:41:00.042Z,1.15
2023-01-29T17:43:26.719Z,1.20
2023-01-29T17:45:53.393Z,1.11
2023-01-29T17:48:26.305Z,1.08
2023-01-29T17:50:58.947Z,1.02
2023-01-29T17:53:30.524Z,1.02
2023-01-29T17:56:03.156Z,0.75
2023-01-29T17:58:29.786Z,0.72
2023-01-29T18:00:56.405Z,0.75
2023-01-29T18:03:23.313Z,0.64
2023-01-29T18:05:50.534Z,0.76
2023-01-29T18:08:33.027Z,0.91
2023-01-29T18:11:00.892Z,0.79
2023-01-29T18:13:28.581Z,0.32
2023-01-29T18:15:55.258Z,0.41
2023-01-29T18:18:23.953Z,0.32
2023-01-29T18:20:50.868Z,0.22
2023-01-29T18:23:17.518Z,-0.04
2023-01-29T18:25:44.864Z,-0.02
2023-01-29T18:28:19.718Z,0.16
2023-01-29T18:30:47.554Z,0.21
2023-01-29T18:33:15.498Z,0.31
2023-01-29T18:35:44.635Z,0.32
2023-01-29T18:38:11.691Z,0.41
2023-01-29T18:40:38.588Z,-0.01
2023-01-29T18:43:05.207Z,0.14
2023-01-29T18:45:32.073Z,-0.12
2023-01-29T18:47:58.748Z,-0.05
2023-01-29T18:50:26.462Z,-0.07
2023-01-29T18:52:53.755Z,0.31
2023-01-29T18:55:20.911Z,0.17
2023-01-29T18:58:29.008Z,0.05
2023-01-29T19:00:34.639Z,0.04
2023-01-29T19:03:01.291Z,0.04
2023-01-29T19:05:27.983Z,0.12
2023-01-29T19:07:54.586Z,0.08
2023-01-29T19:10:21.182Z,-0.01
2023-01-29T19:12:47.766Z,-0.02
2023-01-29T19:15:14.781Z,-0.12
2023-01-29T19:17:41.588Z,-0.43
2023-01-29T19:20:09.709Z,-0.48
2023-01-29T19:22:36.442Z,-0.67
2023-01-29T19:25:03.056Z,-0.65
2023-01-29T19:27:30.613Z,-0.88
2023-01-29T19:29:58.252Z,-0.84
2023-01-29T19:32:25.593Z,-0.83
2023-01-29T19:34:52.334Z,-0.89
2023-01-29T19:37:18.928Z,-0.84
2023-01-29T19:39:45.618Z,-0.76
2023-01-29T19:42:12.278Z,-0.71
2023-01-29T19:44:39.944Z,-0.60
2023-01-29T19:47:06.686Z,-0.43
2023-01-29T19:49:34.204Z,-0.32
2023-01-29T19:52:01.628Z,-0.33
2023-01-29T19:54:29.647Z,-0.32
2023-01-29T19:56:56.851Z,-0.49
2023-01-29T19:59:23.516Z,-0.65
2023-01-29T20:01:50.192Z,-0.85
2023-01-29T20:04:16.876Z,-1.21
2023-01-29T20:06:43.545Z,-1.24
2023-01-29T20:09:10.133Z,-1.14
2023-01-29T20:11:36.781Z,-1.20
2023-01-29T20:14:03.495Z,-1.12
2023-01-29T20:16:30.163Z,-1.24
2023-01-29T20:19:13.909Z,-1.17
2023-01-29T20:21:42.512Z,-1.40
2023-01-29T20:24:12.439Z,-1.61
2023-01-29T20:26:39.149Z,-1.61
2023-01-29T20:29:06.616Z,-1.60
2023-01-29T20:31:36.231Z,-1.63
2023-01-29T20:34:02.938Z,-1.68
2023-01-29T20:36:29.549Z,-1.56
2023-01-29T20:38:56.273Z,-1.74
2023-01-29T20:41:22.912Z,-1.78
2023-01-29T20:43:50.983Z,-1.84
2023-01-29T20:46:18.593Z,-2.03
2023-01-29T20:48:45.180Z,-2.00
2023-01-29T20:51:17.779Z,-1.93
2023-01-29T20:53:46.231Z,-1.95
2023-01-29T20:56:14.684Z,-2.14
2023-01-29T20:58:41.473Z,-2.14
2023-01-29T21:01:15.545Z,-2.23
2023-01-29T21:03:42.593Z,-2.25
2023-01-29T21:06:10.534Z,-2.42
2023-01-29T21:08:38.518Z,-2.39
2023-01-29T21:11:06.853Z,-2.64
2023-01-29T21:13:33.564Z,-2.65
2023-01-29T21:16:00.629Z,-2.79
2023-01-29T21:18:27.224Z,-2.67
2023-01-29T21:20:54.244Z,-2.57
2023-01-29T21:23:21.516Z,-2.73
2023-01-29T21:25:48.241Z,-2.66
2023-01-29T21:28:15.734Z,-2.45
2023-01-29T21:30:42.492Z,-2.17
2023-01-29T21:33:09.172Z,-2.03
2023-01-29T21:35:37.798Z,-2.07
2023-01-29T21:38:04.752Z,-1.85
2023-01-29T21:40:31.822Z,-1.87
2023-01-29T21:43:15.460Z,-2.03
2023-01-29T21:45:43.087Z,-1.86
2023-01-29T21:48:11.340Z,-1.60
2023-01-29T21:50:38.271Z,-1.64
2023-01-29T21:53:05.062Z,-1.56
2023-01-29T21:55:32.605Z,-1.73
2023-01-29T21:58:00.414Z,-1.86
2023-01-29T22:00:28.051Z,-1.82
2023-01-29T22:02:54.739Z,-1.90
2023-01-29T22:05:21.465Z,-2.17
2023-01-29T22:07:49.461Z,-2.48
2023-01-29T22:10:20.134Z,-2.21
2023-01-29T22:12:47.840Z,-2.27
2023-01-29T22:15:15.328Z,-1.92
2023-01-29T22:17:42.401Z,-1.94
2023-01-29T22:20:13.540Z,-1.84
2023-01-29T22:22:40.454Z,-1.88
2023-01-29T22:25:07.364Z,-1.78
2023-01-29T22:27:34.503Z,-1.73
2023-01-29T22:30:01.371Z,-1.68
2023-01-29T22:32:28.281Z,-1.98
2023-01-29T22:34:54.944Z,-2.19
2023-01-29T22:37:21.708Z,-2.33
2023-01-29T22:39:48.305Z,-2.67
2023-01-29T22:42:14.935Z,-2.28
2023-01-29T22:44:42.738Z,-1.96
2023-01-29T22:47:09.386Z,-2.39
2023-01-29T22:49:35.989Z,-2.37
2023-01-29T22:52:11.753Z,-2.08
2023-01-29T22:54:43.580Z,-1.96
2023-01-29T22:57:12.331Z,-1.95
2023-01-29T22:59:39.263Z,-2.23
2023-01-29T23:02:06.612Z,-2.19
2023-01-29T23:04:33.549Z,-1.96
2023-01-29T23:07:00.221Z,-2.10
2023-01-29T23:09:26.872Z,-2.30
2023-01-29T23:11:53.529Z,-2.07
2023-01-29T23:14:20.297Z,-2.22
2023-01-29T23:16:46.886Z,-2.08
2023-01-29T23:19:13.782Z,-2.27
2023-01-29T23:21:40.395Z,-2.16
2023-01-29T23:24:08.632Z,-2.01
2023-01-29T23:26:53.805Z,-2.05
2023-01-29T23:29:20.586Z,-2.16
2023-01-29T23:31:47.440Z,-2.04
2023-01-29T23:34:14.357Z,-1.88
2023-01-29T23:36:41.759Z,-1.88
2023-01-29T23:39:08.462Z,-1.93
2023-01-29T23:41:35.883Z,-2.07
2023-01-29T23:44:02.487Z,-1.99
2023-01-29T23:46:29.144Z,-2.32
2023-01-29T23:48:55.761Z,-2.49
2023-01-29T23:51:22.377Z,-2.46
2023-01-29T23:53:48.998Z,-2.48
2023-01-29T23:56:15.683Z,-2.51
2023-01-29T23:58:42.314Z,-2.48
